Time;durP1;ratioP1;P1;durP2;ratioP2;P2;SDS_P1;SDS_P2;PMS_P1;PMS_P2;Temp;Humidity;BMP_temperature;BMP_pressure;BME280_temperature;BME280_humidity;BME280_pressure;Samples;Min_cycle;Max_cycle;Signal;HPM_P1;HPM_P2
2022/05/19 00:00:11;;;;;;;45.83;42.95;;;;;;;8.21;100.00;102236.41;5007520;28;20127;-81
2022/05/19 00:02:40;;;;;;;49.50;46.33;;;;;;;8.12;100.00;102236.50;4991728;28;20094;-82
2022/05/19 00:05:10;;;;;;;42.00;39.20;;;;;;;8.34;100.00;102237.84;4994065;28;20047;-81
2022/05/19 00:07:47;;;;;;;43.92;40.72;;;;;;;8.35;100.00;102234.19;4999007;28;20055;-83
2022/05/19 00:10:18;;;;;;;34.42;32.00;;;;;;;8.21;100.00;102239.06;4994889;28;20380;-81
2022/05/19 00:12:47;;;;;;;36.50;33.88;;;;;;;8.46;100.00;102239.28;4997482;28;20046;-82
2022/05/19 00:15:26;;;;;;;35.85;33.42;;;;;;;8.37;100.00;102240.19;5005223;28;20077;-81
2022/05/19 00:18:01;;;;;;;34.25;32.17;;;;;;;8.24;100.00;102246.69;5008216;28;20050;-82
2022/05/19 00:20:28;;;;;;;35.58;32.97;;;;;;;7.86;100.00;102244.38;5011697;28;20128;-81
2022/05/19 00:22:59;;;;;;;31.85;29.75;;;;;;;8.01;100.00;102240.22;5013524;28;20050;-81
2022/05/19 00:25:26;;;;;;;29.90;27.95;;;;;;;8.42;100.00;102245.88;5004600;28;20073;-82
2022/05/19 00:27:57;;;;;;;32.15;29.92;;;;;;;7.88;100.00;102242.41;4997666;28;20124;-83
2022/05/19 00:30:40;;;;;;;32.05;30.00;;;;;;;8.13;100.00;102246.09;4998428;28;20399;-82
2022/05/19 00:33:16;;;;;;;;;;;;;;;8.14;100.00;102240.69;5015295;28;20042;-81
2022/05/19 00:35:45;;;;;;;34.47;32.28;;;;;;;8.04;100.00;102247.84;5008054;28;20004;-81
2022/05/19 00:38:19;;;;;;;34.95;32.53;;;;;;;7.98;100.00;102254.56;5008307;28;20049;-84
2022/05/19 00:40:53;;;;;;;30.75;28.60;;;;;;;8.19;100.00;102243.66;5009875;28;20143;-82
2022/05/19 00:43:28;;;;;;;32.95;31.13;;;;;;;8.22;100.00;102247.84;5012187;28;20116;-81
2022/05/19 00:46:10;;;;;;;36.45;33.88;;;;;;;8.31;100.00;102248.72;5006698;28;20493;-80
2022/05/19 00:48:51;;;;;;;33.88;31.63;;;;;;;8.22;100.00;102253.97;4999161;28;20050;-82
2022/05/19 00:51:22;;;;;;;34.47;31.63;;;;;;;7.75;100.00;102248.09;5002831;28;20541;-83
2022/05/19 00:53:57;;;;;;;34.08;31.80;;;;;;;7.63;100.00;102244.81;5011407;28;20045;-82
2022/05/19 00:56:31;;;;;;;33.95;31.70;;;;;;;7.34;100.00;102252.91;5005700;28;20132;-81
2022/05/19 00:59:05;;;;;;;33.90;31.52;;;;;;;7.38;100.00;102248.97;5002581;28;20546;-81
2022/05/19 01:01:38;;;;;;;31.35;29.42;;;;;;;7.89;100.00;102244.91;5010221;28;20128;-81
2022/05/19 01:04:09;;;;;;;;;;;;;;;7.74;100.00;102249.88;5010759;28;20045;-83
2022/05/19 01:06:38;;;;;;;35.13;32.83;;;;;;;7.87;100.00;102252.16;5004423;28;19921;-80
2022/05/19 01:09:11;;;;;;;33.25;30.70;;;;;;;7.22;100.00;102244.34;5013453;28;20112;-81
2022/05/19 01:11:38;;;;;;;33.80;31.40;;;;;;;7.48;100.00;102257.72;5004125;28;20137;-82
2022/05/19 01:14:11;;;;;;;32.33;30.33;;;;;;;7.70;100.00;102263.56;5005722;28;20398;-82
2022/05/19 01:16:44;;;;;;;33.97;31.83;;;;;;;7.34;100.00;102255.56;5008981;28;20544;-82
2022/05/19 01:19:30;;;;;;;33.90;31.77;;;;;;;7.75;100.00;102259.50;5003756;28;20133;-82
2022/05/19 01:22:07;;;;;;;29.83;27.95;;;;;;;7.97;100.00;102262.69;5009773;28;20049;-81
2022/05/19 01:24:51;;;;;;;35.55;33.42;;;;;;;7.80;100.00;102269.59;5001612;28;20058;-81
2022/05/19 01:27:21;;;;;;;30.52;28.85;;;;;;;8.08;100.00;102280.13;5004263;28;20058;-82
2022/05/19 01:29:48;;;;;;;31.42;29.35;;;;;;;7.99;100.00;102276.59;5006989;28;20055;-82
2022/05/19 01:32:28;;;;;;;33.03;30.77;;;;;;;7.67;100.00;102269.16;5005521;28;20693;-82
2022/05/19 01:34:58;;;;;;;34.15;31.98;;;;;;;7.86;100.00;102270.81;5004493;28;20046;-82
2022/05/19 01:37:28;;;;;;;37.50;35.30;;;;;;;7.53;100.00;102273.13;5001262;28;20058;-81
2022/05/19 01:40:06;;;;;;;39.55;37.08;;;;;;;7.88;100.00;102275.00;5002069;28;20061;-81
2022/05/19 01:42:52;;;;;;;36.05;33.70;;;;;;;7.75;100.00;102285.13;5005585;28;20051;-82
2022/05/19 01:45:42;;;;;;;32.63;30.73;;;;;;;7.81;100.00;102284.50;5005144;28;20050;-80
2022/05/19 01:48:22;;;;;;;33.38;31.15;;;;;;;7.68;100.00;102282.19;5004719;28;20094;-81
2022/05/19 01:50:54;;;;;;;35.28;33.25;;;;;;;7.66;100.00;102281.53;5006939;28;20065;-83
2022/05/19 01:53:34;;;;;;;36.17;34.03;;;;;;;7.83;100.00;102289.66;5006835;28;20108;-83
2022/05/19 01:56:13;;;;;;;34.00;32.05;;;;;;;7.53;100.00;102289.84;5006596;28;20112;-81
2022/05/19 01:58:50;;;;;;;34.40;32.25;;;;;;;7.47;100.00;102298.31;5003835;28;20042;-82
2022/05/19 02:01:20;;;;;;;35.72;33.67;;;;;;;7.05;100.00;102295.31;5117777;23;20128;-81
2022/05/19 02:03:54;;;;;;;34.83;32.50;;;;;;;7.40;100.00;102293.78;5024085;28;20057;-82
2022/05/19 02:06:27;;;;;;;35.70;33.40;;;;;;;7.29;100.00;102297.44;5016010;28;20054;-82
2022/05/19 02:08:57;;;;;;;36.33;34.22;;;;;;;7.50;100.00;102287.47;5026025;28;20256;-80
2022/05/19 02:11:30;;;;;;;38.47;36.05;;;;;;;7.19;100.00;102292.19;5016768;28;20053;-81
2022/05/19 02:14:01;;;;;;;44.83;42.15;;;;;;;7.02;100.00;102303.50;5015966;28;20478;-81
2022/05/19 02:16:30;;;;;;;33.17;31.17;;;;;;;7.10;100.00;102296.53;5015400;28;20042;-81
2022/05/19 02:18:58;;;;;;;34.17;32.17;;;;;;;7.04;100.00;102309.50;5023156;28;20049;-81
2022/05/19 02:21:26;;;;;;;31.80;29.90;;;;;;;7.25;100.00;102304.81;5026740;28;20081;-81
2022/05/19 02:23:58;;;;;;;28.45;26.65;;;;;;;7.63;100.00;102310.94;5012319;28;20045;-81
2022/05/19 02:26:25;;;;;;;28.52;26.90;;;;;;;7.37;100.00;102308.13;5015311;28;20038;-81
2022/05/19 02:29:00;;;;;;;26.52;24.83;;;;;;;7.17;100.00;102304.75;5023462;28;20053;-81
2022/05/19 02:31:26;;;;;;;30.10;28.20;;;;;;;6.53;100.00;102314.19;5014578;28;20054;-80
2022/05/19 02:33:53;;;;;;;27.55;25.88;;;;;;;6.77;100.00;102310.25;5018548;28;20045;-81
2022/05/19 02:36:20;;;;;;;26.45;24.63;;;;;;;7.21;100.00;102308.75;5016261;28;20113;-81
2022/05/19 02:38:47;;;;;;;28.33;26.63;;;;;;;6.98;100.00;102318.00;5017443;28;20482;-82
2022/05/19 02:41:16;;;;;;;27.65;25.98;;;;;;;7.05;100.00;102311.16;5016747;28;20042;-80
2022/05/19 02:43:43;;;;;;;27.20;25.45;;;;;;;7.18;100.00;102316.13;5021212;28;20053;-81
2022/05/19 02:46:11;;;;;;;25.33;23.52;;;;;;;6.55;100.00;102317.50;5019100;28;20546;-80
2022/05/19 02:48:38;;;;;;;28.05;25.92;;;;;;;6.38;100.00;102320.84;5019986;28;20477;-81
2022/05/19 02:51:05;;;;;;;27.05;25.08;;;;;;;7.05;100.00;102322.56;5015449;28;20054;-81
2022/05/19 02:53:32;;;;;;;26.25;24.42;;;;;;;7.21;100.00;102324.59;5022551;28;20041;-81
2022/05/19 02:55:59;;;;;;;25.13;23.52;;;;;;;7.26;100.00;102322.38;5014604;28;20053;-80
2022/05/19 02:58:27;;;;;;;29.48;26.65;;;;;;;7.41;100.00;102324.53;5012196;28;20525;-81
2022/05/19 03:00:54;;;;;;;25.27;23.55;;;;;;;7.29;100.00;102332.66;5011212;28;20540;-81
2022/05/19 03:03:30;;;;;;;24.63;23.08;;;;;;;7.32;100.00;102331.50;5021508;28;20085;-80
2022/05/19 03:05:59;;;;;;;24.73;22.92;;;;;;;7.20;100.00;102335.31;4995249;28;20213;-80
2022/05/19 03:08:35;;;;;;;24.98;23.38;;;;;;;7.13;100.00;102328.94;5010171;28;20371;-81
2022/05/19 03:11:05;;;;;;;23.35;21.90;;;;;;;6.79;100.00;102334.72;5017148;28;20437;-80
2022/05/19 03:13:33;;;;;;;23.45;22.05;;;;;;;6.92;100.00;102337.88;5006611;28;20049;-83
2022/05/19 03:16:00;;;;;;;23.75;22.35;;;;;;;7.00;100.00;102335.38;5013735;28;20049;-81
2022/05/19 03:18:30;;;;;;;40.25;37.95;;;;;;;7.06;100.00;102333.97;4998521;28;20128;-81
2022/05/19 03:20:58;;;;;;;36.15;33.85;;;;;;;6.82;100.00;102340.56;5010344;28;20045;-81
2022/05/19 03:23:27;;;;;;;32.75;30.92;;;;;;;6.74;100.00;102342.22;5025269;28;20421;-82
2022/05/19 03:26:00;;;;;;;32.55;30.73;;;;;;;7.08;100.00;102340.78;5018984;28;20041;-83
2022/05/19 03:28:28;;;;;;;34.05;31.80;;;;;;;7.11;100.00;102339.66;5026596;28;20053;-81
2022/05/19 03:31:04;;;;;;;35.55;33.25;;;;;;;7.49;100.00;102327.28;5016391;28;20054;-81
2022/05/19 03:33:34;;;;;;;25.42;23.73;;;;;;;7.67;100.00;102338.72;4997509;28;20105;-82
2022/05/19 03:36:02;;;;;;;36.55;34.17;;;;;;;7.66;100.00;102344.19;5032091;28;20091;-82
2022/05/19 03:38:30;;;;;;;34.95;32.85;;;;;;;7.71;100.00;102347.19;5028093;28;20046;-81
2022/05/19 03:40:57;;;;;;;36.47;34.17;;;;;;;7.89;100.00;102339.31;5013559;28;20111;-81
2022/05/19 03:43:31;;;;;;;37.53;34.92;;;;;;;8.11;100.00;102344.19;5014122;28;20453;-80
2022/05/19 03:45:58;;;;;;;34.55;32.55;;;;;;;7.83;100.00;102345.19;5014095;28;20054;-82
2022/05/19 03:48:27;;;;;;;31.48;29.77;;;;;;;7.98;100.00;102343.72;5009669;28;20081;-82
2022/05/19 03:50:55;;;;;;;36.78;34.58;;;;;;;7.66;100.00;102344.19;5020642;28;20491;-83
2022/05/19 03:53:23;;;;;;;24.90;23.40;;;;;;;8.11;100.00;102343.34;5027254;28;20038;-82
2022/05/19 03:55:51;;;;;;;25.83;23.85;;;;;;;8.11;100.00;102343.34;5013430;28;20136;-81
2022/05/19 03:58:20;;;;;;;23.63;22.23;;;;;;;7.85;100.00;102349.34;5015067;28;20456;-81
2022/05/19 04:00:47;;;;;;;24.65;22.95;;;;;;;8.10;100.00;102345.16;5018238;28;20077;-80
2022/05/19 04:03:15;;;;;;;24.63;22.65;;;;;;;8.27;100.00;102346.16;5021608;28;20100;-81
2022/05/19 04:05:42;;;;;;;27.98;26.10;;;;;;;8.24;100.00;102349.09;5016846;28;20520;-81
2022/05/19 04:08:11;;;;;;;49.83;45.92;;;;;;;8.40;100.00;102348.47;5021009;28;20520;-81
2022/05/19 04:10:42;;;;;;;50.65;46.85;;;;;;;8.65;100.00;102354.78;5016705;28;20045;-81
2022/05/19 04:13:09;;;;;;;48.38;44.80;;;;;;;8.56;100.00;102345.94;5018587;28;20064;-79
2022/05/19 04:15:36;;;;;;;27.90;26.10;;;;;;;8.47;100.00;102349.50;5017316;28;20050;-81
2022/05/19 04:18:04;;;;;;;28.58;26.88;;;;;;;8.63;100.00;102351.47;5017386;28;20046;-80
2022/05/19 04:20:31;;;;;;;27.00;25.13;;;;;;;8.42;100.00;102351.78;5010468;28;20046;-80
2022/05/19 04:22:59;;;;;;;27.48;25.55;;;;;;;8.78;100.00;102347.28;5032567;28;20053;-80
2022/05/19 04:25:29;;;;;;;27.98;26.20;;;;;;;9.29;100.00;102358.03;5019554;28;20108;-80
2022/05/19 04:28:04;;;;;;;27.92;26.23;;;;;;;9.13;100.00;102350.81;5017470;28;20116;-81
2022/05/19 04:30:32;;;;;;;26.25;24.60;;;;;;;9.37;100.00;102347.47;5017037;28;20524;-82
2022/05/19 04:33:02;;;;;;;27.42;25.63;;;;;;;9.60;100.00;102347.75;5017113;28;20053;-81
2022/05/19 04:35:29;;;;;;;30.52;27.75;;;;;;;9.74;100.00;102339.19;5028415;28;20053;-81
2022/05/19 04:38:07;;;;;;;26.27;24.42;;;;;;;9.55;100.00;102334.97;5015826;28;20045;-81
2022/05/19 04:40:38;;;;;;;29.48;27.48;;;;;;;9.46;100.00;102340.41;5016069;28;20107;-81
2022/05/19 04:43:07;;;;;;;28.58;26.73;;;;;;;9.60;100.00;102351.25;5023645;28;20046;-81
2022/05/19 04:45:35;;;;;;;26.80;24.90;;;;;;;9.78;100.00;102348.50;5021448;28;20469;-81
2022/05/19 04:48:02;;;;;;;26.70;24.55;;;;;;;10.16;100.00;102343.59;5013818;28;20057;-82
2022/05/19 04:50:32;;;;;;;26.63;24.92;;;;;;;10.20;100.00;102344.13;5009143;28;20060;-81
2022/05/19 04:53:01;;;;;;;27.10;25.23;;;;;;;10.56;100.00;102350.00;5029882;28;20473;-81
2022/05/19 04:55:29;;;;;;;30.05;27.05;;;;;;;10.66;100.00;102350.66;5016161;28;20053;-80
2022/05/19 04:58:02;;;;;;;27.23;25.02;;;;;;;10.99;100.00;102351.44;5025382;28;20045;-81
2022/05/19 05:00:31;;;;;;;29.40;27.25;;;;;;;10.83;100.00;102358.59;5016906;28;20046;-81
2022/05/19 05:03:00;;;;;;;27.65;25.55;;;;;;;10.82;100.00;102355.13;4995101;28;20386;-81
2022/05/19 05:05:28;;;;;;;27.73;25.83;;;;;;;11.24;100.00;102343.41;4996935;28;20050;-81
2022/05/19 05:07:56;;;;;;;28.88;27.08;;;;;;;15.04;100.00;102343.44;4999931;28;20117;-81
2022/05/19 05:10:23;;;;;;;25.00;23.60;;;;;;;17.62;100.00;102335.91;4999749;28;20050;-82
2022/05/19 05:12:51;;;;;;;29.08;26.83;;;;;;;12.14;100.00;102338.53;5011967;28;20042;-80
2022/05/19 05:15:20;;;;;;;33.35;30.95;;;;;;;11.54;100.00;102341.81;4998852;28;20145;-81
2022/05/19 05:17:48;;;;;;;31.48;29.48;;;;;;;12.18;100.00;102343.50;5001485;28;20540;-79
2022/05/19 05:20:17;;;;;;;34.00;31.55;;;;;;;11.90;100.00;102336.84;4997662;28;20124;-81
2022/05/19 05:22:52;;;;;;;37.13;34.70;;;;;;;12.36;100.00;102344.03;4996619;28;20046;-81
2022/05/19 05:25:19;;;;;;;38.75;35.95;;;;;;;11.70;100.00;102348.88;4993384;28;20058;-82
2022/05/19 05:27:46;;;;;;;42.08;39.25;;;;;;;12.11;100.00;102338.06;5014860;28;20049;-82
2022/05/19 05:30:14;;;;;;;46.17;43.20;;;;;;;11.87;100.00;102342.50;5011369;28;20470;-81
2022/05/19 05:32:42;;;;;;;48.45;45.47;;;;;;;12.50;100.00;102345.09;5002585;28;20057;-83
2022/05/19 05:35:11;;;;;;;45.47;42.78;;;;;;;12.20;100.00;102336.16;4990438;28;20053;-82
2022/05/19 05:37:39;;;;;;;47.45;44.30;;;;;;;12.40;100.00;102345.31;5010527;28;20502;-82
2022/05/19 05:40:11;;;;;;;40.63;38.17;;;;;;;12.47;100.00;102340.97;4995731;28;20431;-82
2022/05/19 05:42:38;;;;;;;47.03;43.83;;;;;;;12.44;100.00;102338.66;4995300;28;20050;-81
2022/05/19 05:45:08;;;;;;;32.88;30.38;;;;;;;12.42;100.00;102342.50;4988135;28;20051;-82
2022/05/19 05:47:34;;;;;;;34.03;30.92;;;;;;;12.81;100.00;102345.81;4992626;28;20046;-81
2022/05/19 05:50:04;;;;;;;34.13;31.35;;;;;;;12.71;100.00;102336.41;4994686;28;20081;-80
2022/05/19 05:52:33;;;;;;;32.47;30.38;;;;;;;12.74;100.00;102344.06;4986944;28;20050;-82
2022/05/19 05:55:07;;;;;;;31.08;28.63;;;;;;;13.17;100.00;102344.31;4993783;28;20046;-82
2022/05/19 05:57:42;;;;;;;31.20;28.70;;;;;;;13.25;100.00;102339.75;4986134;28;20074;-82
2022/05/19 06:00:10;;;;;;;31.17;28.83;;;;;;;13.10;100.00;102343.38;5002995;28;20046;-81
2022/05/19 06:02:37;;;;;;;32.13;29.70;;;;;;;13.15;100.00;102346.31;5006464;28;20078;-81
2022/05/19 06:05:09;;;;;;;31.52;28.88;;;;;;;13.29;100.00;102349.03;5012205;28;20054;-80
2022/05/19 06:07:39;;;;;;;31.53;29.30;;;;;;;13.40;100.00;102353.06;5026296;28;20045;-80
2022/05/19 06:10:07;;;;;;;32.40;29.98;;;;;;;13.22;100.00;102341.91;5016364;28;20371;-81
2022/05/19 06:12:35;;;;;;;32.38;30.27;;;;;;;14.35;100.00;102338.75;5015733;28;20406;-83
2022/05/19 06:15:11;;;;;;;31.73;29.73;;;;;;;13.88;100.00;102347.28;5015345;28;20046;-83
2022/05/19 06:17:41;;;;;;;28.13;26.23;;;;;;;14.23;100.00;102350.97;5017980;28;20053;-83
2022/05/19 06:20:13;;;;;;;30.35;28.35;;;;;;;15.12;100.00;102350.47;5008201;28;20057;-84
2022/05/19 06:22:48;;;;;;;30.55;28.65;;;;;;;14.32;100.00;102352.50;5014960;28;20466;-83
2022/05/19 06:25:18;;;;;;;31.83;29.92;;;;;;;14.57;100.00;102352.13;5018025;28;20060;-85
2022/05/19 06:27:45;;;;;;;33.80;31.35;;;;;;;14.44;100.00;102356.31;5015037;28;20045;-82
2022/05/19 06:30:14;;;;;;;33.67;31.50;;;;;;;13.94;100.00;102350.03;5015663;28;20050;-82
2022/05/19 06:32:42;;;;;;;32.30;30.20;;;;;;;14.12;100.00;102343.44;5018320;28;20041;-82
2022/05/19 06:35:14;;;;;;;33.42;30.90;;;;;;;13.46;100.00;102354.16;5016602;28;20053;-82
2022/05/19 06:37:40;;;;;;;32.17;29.92;;;;;;;14.84;100.00;102353.16;5019544;28;20054;-83
2022/05/19 06:40:09;;;;;;;32.67;30.33;;;;;;;14.40;100.00;102352.38;5015253;28;20065;-82
2022/05/19 06:42:37;;;;;;;45.03;41.88;;;;;;;15.19;100.00;102356.72;5026350;28;20129;-84
2022/05/19 06:45:05;;;;;;;45.45;43.15;;;;;;;15.30;100.00;102352.63;5019833;28;20045;-83
2022/05/19 06:47:32;;;;;;;44.50;42.10;;;;;;;14.89;100.00;102350.75;5016009;28;20042;-83
2022/05/19 06:49:59;;;;;;;43.25;40.45;;;;;;;15.11;100.00;102346.16;5016055;28;20130;-82
2022/05/19 06:52:29;;;;;;;44.00;41.50;;;;;;;15.25;100.00;102344.34;5025727;28;20140;-84
2022/05/19 06:54:58;;;;;;;41.28;38.75;;;;;;;14.82;100.00;102349.84;5020849;28;20124;-83
2022/05/19 06:57:27;;;;;;;41.17;38.70;;;;;;;15.23;100.00;102352.59;5018191;28;20061;-83
2022/05/19 06:59:54;;;;;;;40.33;37.72;;;;;;;15.66;100.00;102356.94;5016604;28;20056;-82
2022/05/19 07:02:24;;;;;;;37.90;35.60;;;;;;;15.19;100.00;102353.19;5018558;28;20490;-82
2022/05/19 07:04:51;;;;;;;39.45;37.17;;;;;;;17.11;100.00;102350.13;5017506;28;20073;-82
2022/05/19 07:07:18;;;;;;;39.65;37.47;;;;;;;16.75;100.00;102347.88;5010333;28;20046;-83
2022/05/19 07:09:47;;;;;;;42.08;39.58;;;;;;;16.36;100.00;102349.50;5014405;28;20046;-82
2022/05/19 07:12:22;;;;;;;44.20;41.45;;;;;;;15.60;100.00;102353.19;5014728;28;20073;-82
2022/05/19 07:14:50;;;;;;;47.15;44.15;;;;;;;14.60;100.00;102349.06;5020874;28;20045;-82
2022/05/19 07:17:18;;;;;;;31.10;29.00;;;;;;;16.53;100.00;102344.59;5018489;28;20053;-83
2022/05/19 07:22:31;;;;;;;28.73;27.20;;;;;;;16.15;100.00;102358.56;5002527;28;20147;-83
2022/05/19 07:25:03;;;;;;;32.30;30.13;;;;;;;16.43;100.00;102367.28;5014093;28;20050;-82
2022/05/19 07:27:30;;;;;;;31.70;29.60;;;;;;;17.46;100.00;102365.94;5019055;28;20045;-83
2022/05/19 07:29:59;;;;;;;42.65;39.85;;;;;;;15.52;100.00;102370.28;5023150;28;20052;-85
2022/05/19 07:32:26;;;;;;;42.38;39.83;;;;;;;17.03;100.00;102363.75;5010910;28;20049;-82
2022/05/19 07:34:56;;;;;;;44.15;41.55;;;;;;;15.98;100.00;102366.97;5013938;28;20064;-84
2022/05/19 07:37:23;;;;;;;43.95;40.80;;;;;;;15.47;100.00;102371.88;5018799;28;20053;-82
2022/05/19 07:39:50;;;;;;;52.50;48.95;;;;;;;16.05;100.00;102377.72;5018187;28;20478;-81
2022/05/19 07:42:18;;;;;;;49.88;47.03;;;;;;;17.10;100.00;102373.47;5013771;28;20046;-82
2022/05/19 07:44:46;;;;;;;50.53;46.33;;;;;;;17.06;100.00;102374.91;5014094;28;20041;-83
2022/05/19 07:47:14;;;;;;;44.35;41.60;;;;;;;16.28;100.00;102377.34;5018834;28;20049;-82
2022/05/19 07:49:45;;;;;;;40.65;38.25;;;;;;;16.89;100.00;102374.53;5016275;28;20481;-83
2022/05/19 07:52:12;;;;;;;39.45;37.00;;;;;;;16.56;100.00;102368.31;5022449;28;20045;-82
2022/05/19 07:54:40;;;;;;;39.85;37.28;;;;;;;16.49;100.00;102371.00;5018257;28;20049;-81
2022/05/19 07:57:07;;;;;;;31.65;29.55;;;;;;;16.70;100.00;102361.91;5023574;28;20120;-81
2022/05/19 07:59:36;;;;;;;32.08;29.88;;;;;;;17.01;100.00;102368.53;5023861;28;20054;-82
2022/05/19 08:02:03;;;;;;;36.00;33.78;;;;;;;16.79;100.00;102368.72;5020618;28;20065;-82
2022/05/19 08:04:30;;;;;;;34.90;32.60;;;;;;;17.06;100.00;102357.97;5031079;28;20056;-81
2022/05/19 08:07:02;;;;;;;31.42;29.27;;;;;;;16.96;100.00;102365.66;5010774;28;20050;-83
2022/05/19 08:17:52;;;;;;;37.58;35.20;;;;;;;16.99;100.00;102359.84;5013409;28;20502;-82
2022/05/19 08:20:21;;;;;;;33.25;31.33;;;;;;;17.96;100.00;102353.53;5017351;28;20046;-83
2022/05/19 08:22:48;;;;;;;32.03;30.23;;;;;;;18.63;100.00;102345.00;5021019;28;20049;-85
2022/05/19 08:25:15;;;;;;;29.67;27.92;;;;;;;18.64;100.00;102347.50;5016780;28;20049;-84
2022/05/19 08:27:47;;;;;;;33.97;32.03;;;;;;;17.95;100.00;102359.16;5015304;28;20049;-84
2022/05/19 08:30:15;;;;;;;27.88;26.48;;;;;;;18.04;100.00;102356.00;5021378;28;20054;-83
2022/05/19 08:32:50;;;;;;;27.23;25.60;;;;;;;18.07;100.00;102352.06;5013106;28;20042;-83
2022/05/19 08:38:47;;;;;;;45.13;42.80;;;;;;;18.66;100.00;102344.56;4922107;28;20057;-83
2022/05/19 08:41:23;;;;;;;47.40;45.00;;;;;;;18.83;100.00;102339.50;5007093;28;20134;-82
2022/05/19 08:43:57;;;;;;;47.35;44.90;;;;;;;18.39;100.00;102342.09;5001284;28;20046;-84
2022/05/19 08:46:34;;;;;;;38.95;36.95;;;;;;;18.82;100.00;102337.81;5023275;28;20473;-83
2022/05/19 08:49:05;;;;;;;39.50;37.60;;;;;;;17.94;100.00;102339.50;5017863;28;20383;-83
2022/05/19 08:51:41;;;;;;;45.20;43.07;;;;;;;18.07;100.00;102333.22;5018894;28;20038;-83
2022/05/19 08:54:13;;;;;;;41.88;39.97;;;;;;;18.11;100.00;102339.81;5021699;28;20042;-83
2022/05/19 08:56:45;;;;;;;29.20;27.80;;;;;;;18.16;100.00;102333.81;5017434;28;20050;-84
2022/05/19 08:59:28;;;;;;;28.20;26.40;;;;;;;17.94;100.00;102336.81;5016835;28;20426;-83
2022/05/19 09:02:03;;;;;;;27.92;26.15;;;;;;;17.08;100.00;102337.94;5024268;28;20050;-83
2022/05/19 09:04:42;;;;;;;35.00;33.35;;;;;;;18.53;100.00;102319.44;5023836;28;20057;-83
2022/05/19 09:10:14;;;;;;;36.75;34.70;;;;;;;18.38;88.58;102318.13;5018915;28;20343;-83
2022/05/19 09:12:43;;;;;;;39.15;36.80;;;;;;;19.16;93.10;102320.31;5014963;28;20058;-83
2022/05/19 09:15:28;;;;;;;38.33;36.22;;;;;;;19.16;96.80;102321.13;5016608;28;20058;-83
2022/05/19 09:17:59;;;;;;;37.25;35.15;;;;;;;18.86;98.17;102318.34;5014395;28;20050;-82
2022/05/19 09:20:40;;;;;;;28.27;26.48;;;;;;;18.65;100.00;102311.47;5016449;28;20037;-83
2022/05/19 09:23:08;;;;;;;28.85;27.15;;;;;;;19.64;100.00;102311.44;5016458;28;20142;-84
2022/05/19 09:25:45;;;;;;;27.20;25.70;;;;;;;19.68;100.00;102318.03;5017357;28;20061;-83
2022/05/19 09:28:19;;;;;;;41.58;39.58;;;;;;;19.04;100.00;102314.84;4999339;28;20050;-84
2022/05/19 09:30:52;;;;;;;50.88;48.28;;;;;;;18.11;94.76;102299.47;5016480;28;20421;-84
2022/05/19 09:33:31;;;;;;;47.35;45.00;;;;;;;18.47;100.00;102303.34;5011792;28;20052;-83
2022/05/19 09:36:00;;;;;;;40.00;38.10;;;;;;;19.44;100.00;102308.97;4996920;28;20503;-84
2022/05/19 09:38:32;;;;;;;38.30;36.25;;;;;;;18.30;99.88;102306.56;5012827;28;20041;-82
2022/05/19 09:41:03;;;;;;;39.40;37.42;;;;;;;19.05;100.00;102300.31;5016136;28;20046;-82
2022/05/19 09:43:38;;;;;;;41.17;38.60;;;;;;;18.73;100.00;102308.53;5016312;28;20054;-83
2022/05/19 09:46:14;;;;;;;30.20;28.70;;;;;;;18.85;100.00;102294.31;5011129;28;20054;-84
2022/05/19 09:48:52;;;;;;;31.70;30.00;;;;;;;19.16;100.00;102290.69;5011698;28;20395;-83
2022/05/19 09:51:20;;;;;;;31.98;30.48;;;;;;;20.27;100.00;102280.41;5008002;28;20050;-85
2022/05/19 09:57:24;;;;;;;29.45;27.55;;;;;;;18.75;100.00;102289.44;4928682;29;20107;-82
2022/05/19 10:00:02;;;;;;;29.73;27.88;;;;;;;19.53;100.00;102282.53;4917772;29;20056;-84
2022/05/19 10:02:35;;;;;;;31.38;29.67;;;;;;;19.03;95.13;102280.03;4973739;28;20125;-82
2022/05/19 10:05:20;;;;;;;27.30;25.90;;;;;;;20.76;100.00;102286.47;4988357;28;20046;-82
2022/05/19 10:08:04;;;;;;;28.02;26.33;;;;;;;20.16;92.99;102283.94;5000828;28;20051;-83
2022/05/19 10:10:44;;;;;;;32.47;30.88;;;;;;;20.19;91.08;102287.00;5003576;28;20137;-82
2022/05/19 10:13:21;;;;;;;29.98;28.38;;;;;;;18.69;85.59;102277.66;5005355;28;20380;-83
2022/05/19 10:16:14;;;;;;;27.77;26.35;;;;;;;19.25;100.00;102272.34;5006694;28;20522;-82
2022/05/19 10:19:02;;;;;;;28.52;26.80;;;;;;;19.26;90.61;102268.59;4994416;28;20486;-82
2022/05/19 10:21:59;;;;;;;28.83;27.23;;;;;;;20.59;87.62;102270.16;4996276;28;20061;-83
2022/05/19 10:25:11;;;;;;;30.83;29.30;;;;;;;20.44;77.27;102273.28;4991610;28;20050;-81
2022/05/19 10:31:05;;;;;;;30.92;29.25;;;;;;;20.48;82.11;102257.44;4998297;28;20053;-82
2022/05/19 10:33:50;;;;;;;29.48;27.70;;;;;;;20.81;94.30;102270.38;4998579;28;20485;-81
2022/05/19 10:36:34;;;;;;;28.55;26.92;;;;;;;20.91;77.28;102265.19;4997124;28;20054;-81
2022/05/19 10:39:22;;;;;;;30.17;28.58;;;;;;;20.80;86.85;102266.03;4996781;28;20473;-83
2022/05/19 10:42:11;;;;;;;30.00;28.25;;;;;;;20.24;74.23;102259.31;4999458;28;20054;-81
2022/05/19 10:45:03;;;;;;;30.63;28.70;;;;;;;19.18;73.56;102262.47;4997040;28;20070;-83
2022/05/19 10:47:48;;;;;;;29.63;28.13;;;;;;;19.92;77.98;102253.41;5001274;28;20108;-80
2022/05/19 10:50:25;;;;;;;29.98;28.35;;;;;;;20.81;74.24;102263.06;5002126;28;20046;-81
2022/05/19 10:53:28;;;;;;;29.30;27.60;;;;;;;20.65;72.83;102253.00;5005837;28;20050;-83
2022/05/19 10:56:24;;;;;;;28.85;27.08;;;;;;;21.63;71.71;102242.28;4982181;28;20042;-85
2022/05/19 10:59:14;;;;;;;29.02;27.33;;;;;;;21.94;64.54;102243.66;4991205;28;20042;-82
2022/05/19 11:01:58;;;;;;;29.25;27.67;;;;;;;20.90;71.57;102235.72;5006148;28;20046;-82
2022/05/19 11:05:12;;;;;;;28.50;27.10;;;;;;;20.52;76.47;102243.28;5016111;28;20132;-86
2022/05/19 11:07:57;;;;;;;30.13;28.35;;;;;;;21.50;76.75;102238.00;5014786;28;20056;-84
2022/05/19 11:10:41;;;;;;;28.90;27.40;;;;;;;21.73;70.44;102235.19;5016636;28;20057;-83
2022/05/19 11:13:34;;;;;;;31.08;29.23;;;;;;;20.12;70.04;102235.88;5013382;28;20060;-84
2022/05/19 11:16:31;;;;;;;29.45;27.70;;;;;;;21.58;78.76;102240.34;5008571;28;20052;-83
2022/05/19 11:19:08;;;;;;;28.60;27.00;;;;;;;21.62;79.94;102235.25;5013537;28;20053;-83
2022/05/19 11:21:55;;;;;;;36.28;34.28;;;;;;;22.24;68.23;102224.41;5027675;28;20065;-84
2022/05/19 11:24:32;;;;;;;39.65;37.65;;;;;;;21.17;69.91;102233.31;5013576;28;20056;-83
2022/05/19 11:27:19;;;;;;;35.25;33.55;;;;;;;21.09;65.09;102229.09;5013714;28;20053;-84
2022/05/19 11:30:07;;;;;;;41.40;39.08;;;;;;;21.41;73.16;102221.38;5011273;28;20054;-84
2022/05/19 11:32:41;;;;;;;49.80;47.33;;;;;;;20.42;75.48;102226.81;5013191;28;20046;-84
2022/05/19 11:35:24;;;;;;;43.05;40.67;;;;;;;20.12;77.93;102216.97;5015205;28;20129;-84
2022/05/19 11:37:58;;;;;;;42.47;40.28;;;;;;;21.80;65.61;102216.09;5013876;28;20042;-84
2022/05/19 11:40:37;;;;;;;42.53;40.30;;;;;;;21.20;65.72;102217.41;5010467;28;20549;-84
2022/05/19 11:43:16;;;;;;;42.30;40.20;;;;;;;22.17;72.40;102210.22;5017133;28;20069;-83
2022/05/19 11:46:07;;;;;;;40.60;38.45;;;;;;;21.44;67.45;102209.25;5024354;28;20046;-84
2022/05/19 11:57:39;;;;;;;30.52;29.00;;;;;;;21.44;80.79;102195.75;5007528;28;20049;-83
2022/05/19 12:00:22;;;;;;;32.67;30.92;;;;;;;20.98;87.08;102195.66;5016350;28;20449;-83
2022/05/19 12:03:08;;;;;;;30.23;28.38;;;;;;;21.16;69.85;102194.66;5001164;28;20054;-84
2022/05/19 12:05:51;;;;;;;30.80;29.10;;;;;;;21.80;72.90;102189.06;4988605;28;20046;-83